sensor_id;sensor_type;location;lat;lon;timestamp;pressure;altitude;pressure_sealevel;temperature;humidity
32456;BME280;18912;43.270;27.942;2023-02-13T00:01:08;99968.41;;;4.25;52.72
32456;BME280;18912;43.270;27.942;2023-02-13T00:03:33;99969.72;;;4.41;52.27
32456;BME280;18912;43.270;27.942;2023-02-13T00:05:59;99987.88;;;4.27;52.54
32456;BME280;18912;43.270;27.942;2023-02-13T00:08:24;99992.63;;;4.23;52.61
32456;BME280;18912;43.270;27.942;2023-02-13T00:10:50;99979.34;;;4.33;52.45
32456;BME280;18912;43.270;27.942;2023-02-13T00:13:15;99999.28;;;4.40;52.15
32456;BME280;18912;43.270;27.942;2023-02-13T00:15:41;100002.69;;;4.09;53.11
32456;BME280;18912;43.270;27.942;2023-02-13T00:18:06;100008.06;;;4.42;52.38
32456;BME280;18912;43.270;27.942;2023-02-13T00:20:32;100002.59;;;4.21;52.82
32456;BME280;18912;43.270;27.942;2023-02-13T00:22:58;100004.88;;;4.15;53.11
32456;BME280;18912;43.270;27.942;2023-02-13T00:25:24;100003.44;;;4.33;52.48
32456;BME280;18912;43.270;27.942;2023-02-13T00:27:52;100001.50;;;4.35;52.19
32456;BME280;18912;43.270;27.942;2023-02-13T00:30:19;99991.16;;;4.08;52.70
32456;BME280;18912;43.270;27.942;2023-02-13T00:32:45;100009.03;;;3.97;53.16
32456;BME280;18912;43.270;27.942;2023-02-13T00:35:10;99998.81;;;4.02;52.71
32456;BME280;18912;43.270;27.942;2023-02-13T00:37:36;100002.94;;;3.84;53.16
32456;BME280;18912;43.270;27.942;2023-02-13T00:40:03;99988.56;;;3.85;53.29
32456;BME280;18912;43.270;27.942;2023-02-13T00:42:28;100005.25;;;3.99;52.86
32456;BME280;18912;43.270;27.942;2023-02-13T00:44:54;100009.38;;;3.81;53.23
32456;BME280;18912;43.270;27.942;2023-02-13T00:47:19;100002.19;;;3.82;53.62
32456;BME280;18912;43.270;27.942;2023-02-13T00:49:45;100010.31;;;3.80;53.59
32456;BME280;18912;43.270;27.942;2023-02-13T00:52:11;99989.16;;;3.66;53.90
32456;BME280;18912;43.270;27.942;2023-02-13T00:54:36;99992.56;;;3.79;53.72
32456;BME280;18912;43.270;27.942;2023-02-13T00:57:02;99996.59;;;3.85;53.60
32456;BME280;18912;43.270;27.942;2023-02-13T00:59:28;100001.69;;;3.76;53.59
32456;BME280;18912;43.270;27.942;2023-02-13T01:01:53;99993.66;;;3.76;53.67
32456;BME280;18912;43.270;27.942;2023-02-13T01:04:19;99996.09;;;3.68;53.75
32456;BME280;18912;43.270;27.942;2023-02-13T01:06:44;100000.47;;;3.80;53.40
32456;BME280;18912;43.270;27.942;2023-02-13T01:09:10;99992.69;;;3.66;53.68
32456;BME280;18912;43.270;27.942;2023-02-13T01:11:36;99999.00;;;3.76;53.62
32456;BME280;18912;43.270;27.942;2023-02-13T01:14:01;100001.31;;;3.70;53.88
32456;BME280;18912;43.270;27.942;2023-02-13T01:16:27;99994.88;;;3.72;53.76
32456;BME280;18912;43.270;27.942;2023-02-13T01:18:52;99973.69;;;3.58;53.74
32456;BME280;18912;43.270;27.942;2023-02-13T01:21:19;99995.72;;;3.73;53.64
32456;BME280;18912;43.270;27.942;2023-02-13T01:23:46;99990.69;;;3.46;54.32
32456;BME280;18912;43.270;27.942;2023-02-13T01:26:22;100002.38;;;3.56;54.19
32456;BME280;18912;43.270;27.942;2023-02-13T01:28:51;99991.22;;;3.62;53.88
32456;BME280;18912;43.270;27.942;2023-02-13T01:31:16;99988.59;;;3.39;54.55
32456;BME280;18912;43.270;27.942;2023-02-13T01:33:42;99987.16;;;3.46;54.46
32456;BME280;18912;43.270;27.942;2023-02-13T01:36:09;99997.16;;;3.55;54.18
32456;BME280;18912;43.270;27.942;2023-02-13T01:38:35;100000.41;;;3.47;54.33
32456;BME280;18912;43.270;27.942;2023-02-13T01:41:00;99987.50;;;3.30;54.70
32456;BME280;18912;43.270;27.942;2023-02-13T01:43:43;100005.97;;;3.44;54.64
32456;BME280;18912;43.270;27.942;2023-02-13T01:46:09;100002.09;;;3.37;54.62
32456;BME280;18912;43.270;27.942;2023-02-13T01:48:35;99999.69;;;3.45;54.48
32456;BME280;18912;43.270;27.942;2023-02-13T01:51:04;99993.81;;;3.40;54.71
32456;BME280;18912;43.270;27.942;2023-02-13T01:56:24;99998.78;;;3.34;54.74
32456;BME280;18912;43.270;27.942;2023-02-13T01:59:03;99982.16;;;3.41;54.62
32456;BME280;18912;43.270;27.942;2023-02-13T02:01:30;99990.31;;;3.40;54.26
32456;BME280;18912;43.270;27.942;2023-02-13T02:04:07;99989.22;;;3.42;54.53
32456;BME280;18912;43.270;27.942;2023-02-13T02:06:45;99974.50;;;3.37;54.46
32456;BME280;18912;43.270;27.942;2023-02-13T02:09:18;99987.97;;;3.35;54.38
32456;BME280;18912;43.270;27.942;2023-02-13T02:14:25;100003.69;;;3.40;54.32
32456;BME280;18912;43.270;27.942;2023-02-13T02:16:51;100005.13;;;3.44;54.06
32456;BME280;18912;43.270;27.942;2023-02-13T02:44:36;100025.53;;;3.10;54.62
32456;BME280;18912;43.270;27.942;2023-02-13T02:47:17;100022.00;;;3.33;54.67
32456;BME280;18912;43.270;27.942;2023-02-13T02:50:11;100022.69;;;3.24;54.56
32456;BME280;18912;43.270;27.942;2023-02-13T02:56:24;100023.47;;;3.37;53.76
32456;BME280;18912;43.270;27.942;2023-02-13T02:58:26;100029.50;;;3.28;53.97
32456;BME280;18912;43.270;27.942;2023-02-13T03:01:15;100034.66;;;3.42;53.57
32456;BME280;18912;43.270;27.942;2023-02-13T03:04:02;100033.47;;;3.46;53.29
32456;BME280;18912;43.270;27.942;2023-02-13T03:06:58;100036.56;;;3.29;53.23
32456;BME280;18912;43.270;27.942;2023-02-13T03:09:30;100047.31;;;3.17;53.62
32456;BME280;18912;43.270;27.942;2023-02-13T03:12:21;100047.94;;;3.20;53.25
32456;BME280;18912;43.270;27.942;2023-02-13T03:15:06;100044.34;;;3.09;53.06
32456;BME280;18912;43.270;27.942;2023-02-13T03:17:32;100039.00;;;3.09;53.09
32456;BME280;18912;43.270;27.942;2023-02-13T03:20:51;100028.56;;;3.06;52.86
32456;BME280;18912;43.270;27.942;2023-02-13T03:29:03;100039.00;;;2.85;52.87
32456;BME280;18912;43.270;27.942;2023-02-13T03:34:34;100033.81;;;2.71;53.05
32456;BME280;18912;43.270;27.942;2023-02-13T03:37:27;100010.28;;;2.52;53.72
32456;BME280;18912;43.270;27.942;2023-02-13T03:40:23;100030.53;;;2.67;53.76
32456;BME280;18912;43.270;27.942;2023-02-13T03:42:56;100037.97;;;2.75;53.67
32456;BME280;18912;43.270;27.942;2023-02-13T03:45:30;100032.53;;;2.76;54.33
32456;BME280;18912;43.270;27.942;2023-02-13T03:48:18;100039.47;;;2.79;54.38
32456;BME280;18912;43.270;27.942;2023-02-13T03:51:05;100038.09;;;2.73;54.26
32456;BME280;18912;43.270;27.942;2023-02-13T03:53:34;100041.66;;;2.85;53.89
32456;BME280;18912;43.270;27.942;2023-02-13T03:56:03;100042.13;;;2.79;53.88
32456;BME280;18912;43.270;27.942;2023-02-13T03:58:53;100048.31;;;2.79;54.02
32456;BME280;18912;43.270;27.942;2023-02-13T04:01:44;100040.84;;;2.72;54.18
32456;BME280;18912;43.270;27.942;2023-02-13T04:06:54;100042.56;;;2.73;53.73
32456;BME280;18912;43.270;27.942;2023-02-13T04:09:22;100036.00;;;2.66;53.39
32456;BME280;18912;43.270;27.942;2023-02-13T04:14:49;100049.34;;;2.66;53.52
32456;BME280;18912;43.270;27.942;2023-02-13T04:17:26;100037.72;;;2.54;53.13
32456;BME280;18912;43.270;27.942;2023-02-13T04:19:55;100008.91;;;2.34;53.34
32456;BME280;18912;43.270;27.942;2023-02-13T04:22:21;100038.03;;;2.50;53.17
32456;BME280;18912;43.270;27.942;2023-02-13T04:24:46;100039.66;;;2.40;52.84
32456;BME280;18912;43.270;27.942;2023-02-13T04:27:14;100032.66;;;2.14;53.06
32456;BME280;18912;43.270;27.942;2023-02-13T04:29:40;100033.94;;;2.08;53.23
32456;BME280;18912;43.270;27.942;2023-02-13T04:32:06;100041.50;;;2.02;52.95
32456;BME280;18912;43.270;27.942;2023-02-13T04:34:31;100039.72;;;1.89;53.31
32456;BME280;18912;43.270;27.942;2023-02-13T04:36:57;100043.09;;;1.79;53.17
32456;BME280;18912;43.270;27.942;2023-02-13T04:39:22;100040.97;;;1.71;53.00
32456;BME280;18912;43.270;27.942;2023-02-13T04:41:47;100039.03;;;1.61;52.86
32456;BME280;18912;43.270;27.942;2023-02-13T04:44:13;100045.25;;;1.61;53.35
32456;BME280;18912;43.270;27.942;2023-02-13T04:46:38;100033.69;;;1.48;52.99
32456;BME280;18912;43.270;27.942;2023-02-13T04:49:04;100043.09;;;1.54;52.99
32456;BME280;18912;43.270;27.942;2023-02-13T04:51:29;100040.91;;;1.46;52.97
32456;BME280;18912;43.270;27.942;2023-02-13T04:53:55;100035.88;;;1.29;52.79
32456;BME280;18912;43.270;27.942;2023-02-13T04:56:20;100038.75;;;1.26;52.69
32456;BME280;18912;43.270;27.942;2023-02-13T04:58:45;100052.88;;;1.14;52.44
32456;BME280;18912;43.270;27.942;2023-02-13T05:01:15;100045.31;;;1.08;53.16
32456;BME280;18912;43.270;27.942;2023-02-13T05:03:41;100044.00;;;1.01;52.61
32456;BME280;18912;43.270;27.942;2023-02-13T05:06:07;100052.59;;;0.92;52.30
32456;BME280;18912;43.270;27.942;2023-02-13T05:08:32;100053.75;;;0.88;53.10
32456;BME280;18912;43.270;27.942;2023-02-13T05:10:58;100061.72;;;0.88;52.86
32456;BME280;18912;43.270;27.942;2023-02-13T05:13:23;100045.00;;;0.86;52.59
32456;BME280;18912;43.270;27.942;2023-02-13T05:15:49;100058.25;;;0.73;52.08
32456;BME280;18912;43.270;27.942;2023-02-13T05:18:17;100072.16;;;0.64;52.38
32456;BME280;18912;43.270;27.942;2023-02-13T05:20:42;100065.06;;;0.51;52.46
32456;BME280;18912;43.270;27.942;2023-02-13T05:23:12;100064.88;;;0.40;53.13
32456;BME280;18912;43.270;27.942;2023-02-13T05:25:47;100066.38;;;0.44;52.48
32456;BME280;18912;43.270;27.942;2023-02-13T05:28:13;100066.38;;;0.58;52.39
32456;BME280;18912;43.270;27.942;2023-02-13T05:30:57;100074.13;;;0.75;52.22
32456;BME280;18912;43.270;27.942;2023-02-13T05:33:22;100046.97;;;0.56;52.13
32456;BME280;18912;43.270;27.942;2023-02-13T05:35:48;100073.03;;;0.91;52.14
32456;BME280;18912;43.270;27.942;2023-02-13T05:38:13;100075.16;;;1.13;51.42
32456;BME280;18912;43.270;27.942;2023-02-13T05:40:38;100059.31;;;1.24;51.91
32456;BME280;18912;43.270;27.942;2023-02-13T05:43:05;100077.63;;;1.55;51.53
32456;BME280;18912;43.270;27.942;2023-02-13T05:45:30;100049.72;;;1.61;51.34
32456;BME280;18912;43.270;27.942;2023-02-13T05:47:55;100073.81;;;1.84;51.49
32456;BME280;18912;43.270;27.942;2023-02-13T05:50:21;100076.19;;;2.14;51.19
32456;BME280;18912;43.270;27.942;2023-02-13T05:52:47;100078.13;;;2.37;51.55
32456;BME280;18912;43.270;27.942;2023-02-13T05:55:12;100072.16;;;2.70;50.66
32456;BME280;18912;43.270;27.942;2023-02-13T05:57:37;100074.19;;;2.66;50.99
32456;BME280;18912;43.270;27.942;2023-02-13T06:00:03;100086.94;;;2.99;50.65
32456;BME280;18912;43.270;27.942;2023-02-13T06:02:29;100083.53;;;3.44;50.36
32456;BME280;18912;43.270;27.942;2023-02-13T06:04:54;100079.41;;;3.86;49.78
32456;BME280;18912;43.270;27.942;2023-02-13T06:07:20;100079.38;;;4.32;49.07
32456;BME280;18912;43.270;27.942;2023-02-13T06:09:45;100075.72;;;4.66;48.21
32456;BME280;18912;43.270;27.942;2023-02-13T06:12:11;100084.06;;;5.06;47.41
32456;BME280;18912;43.270;27.942;2023-02-13T06:14:36;100087.16;;;5.64;46.84
32456;BME280;18912;43.270;27.942;2023-02-13T06:17:02;100076.75;;;6.03;46.12
32456;BME280;18912;43.270;27.942;2023-02-13T06:19:28;100077.78;;;6.62;45.28
32456;BME280;18912;43.270;27.942;2023-02-13T06:21:53;100076.97;;;7.20;44.16
32456;BME280;18912;43.270;27.942;2023-02-13T06:24:19;100075.28;;;7.10;43.74
32456;BME280;18912;43.270;27.942;2023-02-13T06:26:44;100069.97;;;7.77;43.38
32456;BME280;18912;43.270;27.942;2023-02-13T06:29:10;100078.56;;;8.28;42.14
32456;BME280;18912;43.270;27.942;2023-02-13T06:31:37;100083.97;;;9.01;41.30
32456;BME280;18912;43.270;27.942;2023-02-13T06:34:03;100089.06;;;9.49;40.12
32456;BME280;18912;43.270;27.942;2023-02-13T06:36:28;100080.13;;;9.84;39.69
32456;BME280;18912;43.270;27.942;2023-02-13T06:38:54;100078.72;;;10.66;38.78
32456;BME280;18912;43.270;27.942;2023-02-13T06:41:19;100088.00;;;10.89;37.94
32456;BME280;18912;43.270;27.942;2023-02-13T06:43:45;100081.84;;;11.13;37.98
32456;BME280;18912;43.270;27.942;2023-02-13T06:46:10;100079.22;;;11.53;37.70
32456;BME280;18912;43.270;27.942;2023-02-13T06:48:36;100074.66;;;11.54;37.20
32456;BME280;18912;43.270;27.942;2023-02-13T06:51:01;100078.81;;;11.74;37.11
32456;BME280;18912;43.270;27.942;2023-02-13T06:53:27;100081.88;;;12.19;36.39
32456;BME280;18912;43.270;27.942;2023-02-13T06:55:54;100074.53;;;12.60;35.68
32456;BME280;18912;43.270;27.942;2023-02-13T06:58:21;100076.47;;;13.45;34.58
32456;BME280;18912;43.270;27.942;2023-02-13T07:00:47;100080.06;;;14.50;33.25
32456;BME280;18912;43.270;27.942;2023-02-13T07:03:13;100079.63;;;15.34;31.89
32456;BME280;18912;43.270;27.942;2023-02-13T07:05:40;100076.13;;;16.60;30.49
32456;BME280;18912;43.270;27.942;2023-02-13T07:08:07;100079.25;;;17.60;29.27
32456;BME280;18912;43.270;27.942;2023-02-13T07:10:33;100074.97;;;18.37;27.78
32456;BME280;18912;43.270;27.942;2023-02-13T07:12:58;100066.84;;;19.34;26.33
32456;BME280;18912;43.270;27.942;2023-02-13T07:15:24;100071.72;;;20.14;25.46
32456;BME280;18912;43.270;27.942;2023-02-13T07:17:56;100076.66;;;21.10;24.44
32456;BME280;18912;43.270;27.942;2023-02-13T07:20:22;100082.63;;;20.52;24.30
32456;BME280;18912;43.270;27.942;2023-02-13T07:22:47;100076.78;;;20.17;24.86
32456;BME280;18912;43.270;27.942;2023-02-13T07:25:13;100082.28;;;19.79;24.76
32456;BME280;18912;43.270;27.942;2023-02-13T07:27:38;100074.09;;;18.11;26.62
32456;BME280;18912;43.270;27.942;2023-02-13T07:30:04;100072.31;;;17.17;27.60
32456;BME280;18912;43.270;27.942;2023-02-13T07:32:30;100083.31;;;15.98;28.94
32456;BME280;18912;43.270;27.942;2023-02-13T07:34:55;100079.78;;;15.62;29.70
32456;BME280;18912;43.270;27.942;2023-02-13T07:37:21;100058.47;;;15.22;29.56
32456;BME280;18912;43.270;27.942;2023-02-13T07:39:46;100071.72;;;13.92;30.85
32456;BME280;18912;43.270;27.942;2023-02-13T07:42:12;100072.72;;;14.36;31.11
32456;BME280;18912;43.270;27.942;2023-02-13T07:44:37;100077.69;;;13.65;31.40
32456;BME280;18912;43.270;27.942;2023-02-13T07:47:03;100081.38;;;13.02;32.21
32456;BME280;18912;43.270;27.942;2023-02-13T07:49:28;100072.38;;;12.39;33.04
32456;BME280;18912;43.270;27.942;2023-02-13T07:51:55;100062.19;;;12.49;33.43
32456;BME280;18912;43.270;27.942;2023-02-13T07:54:22;100055.41;;;12.53;32.77
32456;BME280;18912;43.270;27.942;2023-02-13T07:56:48;100063.19;;;12.48;32.41
32456;BME280;18912;43.270;27.942;2023-02-13T07:59:13;100066.63;;;12.34;33.61
32456;BME280;18912;43.270;27.942;2023-02-13T08:01:39;100058.47;;;12.34;33.13
32456;BME280;18912;43.270;27.942;2023-02-13T08:04:04;100058.84;;;12.23;33.60
32456;BME280;18912;43.270;27.942;2023-02-13T08:06:29;100057.75;;;11.60;34.43
32456;BME280;18912;43.270;27.942;2023-02-13T08:08:55;100047.59;;;11.62;34.13
32456;BME280;18912;43.270;27.942;2023-02-13T08:11:40;100067.38;;;11.46;34.03
32456;BME280;18912;43.270;27.942;2023-02-13T08:14:18;100064.25;;;11.83;33.60
32456;BME280;18912;43.270;27.942;2023-02-13T08:16:43;100062.91;;;11.79;33.82
32456;BME280;18912;43.270;27.942;2023-02-13T08:19:09;100067.63;;;12.01;33.55
32456;BME280;18912;43.270;27.942;2023-02-13T08:21:34;100072.25;;;12.00;33.18
32456;BME280;18912;43.270;27.942;2023-02-13T08:24:03;100064.59;;;12.12;33.17
32456;BME280;18912;43.270;27.942;2023-02-13T08:26:30;100077.13;;;11.97;33.21
32456;BME280;18912;43.270;27.942;2023-02-13T08:28:56;100055.41;;;12.29;32.79
32456;BME280;18912;43.270;27.942;2023-02-13T08:31:21;100064.34;;;12.62;31.53
32456;BME280;18912;43.270;27.942;2023-02-13T08:33:46;100065.81;;;12.80;31.64
32456;BME280;18912;43.270;27.942;2023-02-13T08:36:12;100068.50;;;12.88;32.42
32456;BME280;18912;43.270;27.942;2023-02-13T08:38:37;100076.56;;;13.21;30.81
32456;BME280;18912;43.270;27.942;2023-02-13T08:41:03;100063.22;;;13.42;30.55
32456;BME280;18912;43.270;27.942;2023-02-13T08:43:28;100069.53;;;13.34;30.29
32456;BME280;18912;43.270;27.942;2023-02-13T08:45:57;100070.66;;;13.48;30.42
32456;BME280;18912;43.270;27.942;2023-02-13T08:48:23;100065.72;;;13.74;30.08
32456;BME280;18912;43.270;27.942;2023-02-13T08:50:48;100063.91;;;13.89;30.48
32456;BME280;18912;43.270;27.942;2023-02-13T08:53:14;100059.03;;;14.30;27.85
32456;BME280;18912;43.270;27.942;2023-02-13T08:55:39;100058.34;;;14.94;28.67
32456;BME280;18912;43.270;27.942;2023-02-13T08:58:05;100058.97;;;15.11;28.73
32456;BME280;18912;43.270;27.942;2023-02-13T09:00:30;100069.56;;;15.35;28.36
32456;BME280;18912;43.270;27.942;2023-02-13T09:03:00;100057.38;;;15.02;27.39
32456;BME280;18912;43.270;27.942;2023-02-13T09:05:26;100055.50;;;14.87;27.57
32456;BME280;18912;43.270;27.942;2023-02-13T09:07:52;100047.47;;;15.80;27.15
32456;BME280;18912;43.270;27.942;2023-02-13T09:10:17;100049.03;;;16.10;27.07
32456;BME280;18912;43.270;27.942;2023-02-13T09:12:43;100050.03;;;16.79;26.75
32456;BME280;18912;43.270;27.942;2023-02-13T09:15:09;100056.94;;;17.16;25.81
32456;BME280;18912;43.270;27.942;2023-02-13T09:17:34;100049.75;;;17.49;25.26
32456;BME280;18912;43.270;27.942;2023-02-13T09:20:00;100038.53;;;17.44;24.72
32456;BME280;18912;43.270;27.942;2023-02-13T09:22:25;100035.31;;;17.88;25.01
32456;BME280;18912;43.270;27.942;2023-02-13T09:24:51;100038.75;;;18.22;24.45
32456;BME280;18912;43.270;27.942;2023-02-13T09:27:16;100028.63;;;17.90;24.63
32456;BME280;18912;43.270;27.942;2023-02-13T09:29:42;100032.22;;;18.56;23.70
32456;BME280;18912;43.270;27.942;2023-02-13T09:32:07;100017.28;;;18.58;25.11
32456;BME280;18912;43.270;27.942;2023-02-13T09:34:33;100021.84;;;18.91;23.77
32456;BME280;18912;43.270;27.942;2023-02-13T09:36:58;100009.16;;;19.03;23.90
32456;BME280;18912;43.270;27.942;2023-02-13T09:39:24;100010.84;;;19.04;24.71
32456;BME280;18912;43.270;27.942;2023-02-13T09:41:51;100002.28;;;19.38;24.18
32456;BME280;18912;43.270;27.942;2023-02-13T09:44:30;100003.16;;;19.32;24.31
32456;BME280;18912;43.270;27.942;2023-02-13T09:47:30;99988.97;;;18.91;24.33
32456;BME280;18912;43.270;27.942;2023-02-13T09:50:01;99991.75;;;17.60;25.80
32456;BME280;18912;43.270;27.942;2023-02-13T09:52:33;99984.84;;;17.97;25.50
32456;BME280;18912;43.270;27.942;2023-02-13T09:55:00;99984.00;;;18.16;25.37
32456;BME280;18912;43.270;27.942;2023-02-13T09:57:33;99981.91;;;18.18;25.18
32456;BME280;18912;43.270;27.942;2023-02-13T10:21:54;99955.66;;;18.94;25.70
32456;BME280;18912;43.270;27.942;2023-02-13T10:24:34;99953.91;;;19.06;24.52
32456;BME280;18912;43.270;27.942;2023-02-13T10:27:14;99948.38;;;18.55;25.07
32456;BME280;18912;43.270;27.942;2023-02-13T10:29:46;99956.41;;;18.30;25.50
32456;BME280;18912;43.270;27.942;2023-02-13T10:32:56;99951.84;;;19.01;25.02
32456;BME280;18912;43.270;27.942;2023-02-13T10:35:44;99946.25;;;19.58;24.65
32456;BME280;18912;43.270;27.942;2023-02-13T10:38:17;99942.03;;;20.18;24.34
32456;BME280;18912;43.270;27.942;2023-02-13T10:43:38;99927.41;;;18.87;24.44
32456;BME280;18912;43.270;27.942;2023-02-13T10:46:22;99924.31;;;18.70;25.35
32456;BME280;18912;43.270;27.942;2023-02-13T10:49:05;99932.81;;;19.50;25.21
32456;BME280;18912;43.270;27.942;2023-02-13T10:51:43;99925.63;;;19.12;24.98
32456;BME280;18912;43.270;27.942;2023-02-13T10:56:55;99926.22;;;19.58;25.09
32456;BME280;18912;43.270;27.942;2023-02-13T11:02:25;99917.75;;;20.15;24.29
32456;BME280;18912;43.270;27.942;2023-02-13T11:04:58;99922.69;;;20.31;24.77
32456;BME280;18912;43.270;27.942;2023-02-13T11:07:25;99927.22;;;20.19;24.72
32456;BME280;18912;43.270;27.942;2023-02-13T11:09:53;99920.28;;;19.92;24.71
32456;BME280;18912;43.270;27.942;2023-02-13T11:12:32;99913.81;;;20.29;24.67
32456;BME280;18912;43.270;27.942;2023-02-13T11:17:24;99909.72;;;19.89;25.23
32456;BME280;18912;43.270;27.942;2023-02-13T11:19:54;99905.09;;;19.58;24.93
32456;BME280;18912;43.270;27.942;2023-02-13T11:22:34;99907.81;;;19.34;24.87
32456;BME280;18912;43.270;27.942;2023-02-13T11:25:02;99903.56;;;19.69;25.06
32456;BME280;18912;43.270;27.942;2023-02-13T11:27:36;99896.56;;;19.73;24.61
32456;BME280;18912;43.270;27.942;2023-02-13T11:30:30;99896.44;;;19.62;25.40
32456;BME280;18912;43.270;27.942;2023-02-13T11:35:45;99888.09;;;19.12;25.70
32456;BME280;18912;43.270;27.942;2023-02-13T11:40:44;99883.09;;;19.03;26.05
32456;BME280;18912;43.270;27.942;2023-02-13T11:43:43;99883.75;;;18.34;26.06
32456;BME280;18912;43.270;27.942;2023-02-13T11:46:20;99873.91;;;17.94;26.37
32456;BME280;18912;43.270;27.942;2023-02-13T11:48:59;99869.00;;;18.35;26.30
32456;BME280;18912;43.270;27.942;2023-02-13T11:51:45;99863.31;;;18.30;26.35
32456;BME280;18912;43.270;27.942;2023-02-13T11:54:26;99854.78;;;18.01;26.85
32456;BME280;18912;43.270;27.942;2023-02-13T11:57:23;99849.41;;;16.88;27.17
32456;BME280;18912;43.270;27.942;2023-02-13T11:59:52;99857.91;;;16.59;28.10
32456;BME280;18912;43.270;27.942;2023-02-13T12:02:20;99856.78;;;16.94;27.68
32456;BME280;18912;43.270;27.942;2023-02-13T12:04:48;99852.53;;;16.78;27.90
32456;BME280;18912;43.270;27.942;2023-02-13T12:07:39;99851.25;;;16.74;28.29
32456;BME280;18912;43.270;27.942;2023-02-13T12:10:15;99847.06;;;16.85;28.50
32456;BME280;18912;43.270;27.942;2023-02-13T12:12:54;99841.78;;;16.70;28.42
32456;BME280;18912;43.270;27.942;2023-02-13T12:15:23;99841.25;;;16.13;29.43
32456;BME280;18912;43.270;27.942;2023-02-13T12:23:37;99835.94;;;15.71;30.51
32456;BME280;18912;43.270;27.942;2023-02-13T12:26:31;99829.13;;;14.69;31.41
32456;BME280;18912;43.270;27.942;2023-02-13T12:32:03;99827.69;;;14.38;31.66
32456;BME280;18912;43.270;27.942;2023-02-13T12:34:43;99832.63;;;14.84;31.46
32456;BME280;18912;43.270;27.942;2023-02-13T12:37:28;99826.53;;;13.74;32.54
32456;BME280;18912;43.270;27.942;2023-02-13T12:45:52;99818.19;;;12.78;35.05
32456;BME280;18912;43.270;27.942;2023-02-13T12:48:36;99820.72;;;13.48;33.54
32456;BME280;18912;43.270;27.942;2023-02-13T13:05:19;99807.13;;;13.10;34.92
32456;BME280;18912;43.270;27.942;2023-02-13T13:13:38;99805.78;;;12.31;35.35
32456;BME280;18912;43.270;27.942;2023-02-13T13:19:06;99801.09;;;11.62;36.88
32456;BME280;18912;43.270;27.942;2023-02-13T13:22:12;99805.06;;;11.19;37.95
32456;BME280;18912;43.270;27.942;2023-02-13T13:27:45;99801.47;;;11.51;37.36
32456;BME280;18912;43.270;27.942;2023-02-13T13:32:43;99796.25;;;11.17;37.89
32456;BME280;18912;43.270;27.942;2023-02-13T13:35:13;99789.16;;;10.68;38.72
32456;BME280;18912;43.270;27.942;2023-02-13T13:43:33;99785.44;;;10.69;37.82
32456;BME280;18912;43.270;27.942;2023-02-13T13:46:14;99785.91;;;11.37;37.16
32456;BME280;18912;43.270;27.942;2023-02-13T13:51:32;99761.88;;;11.42;36.85
32456;BME280;18912;43.270;27.942;2023-02-13T13:56:23;99757.22;;;10.63;36.74
32456;BME280;18912;43.270;27.942;2023-02-13T13:58:49;99760.19;;;10.28;37.29
32456;BME280;18912;43.270;27.942;2023-02-13T14:01:27;99765.00;;;10.66;36.59
32456;BME280;18912;43.270;27.942;2023-02-13T14:04:01;99758.03;;;9.90;36.88
32456;BME280;18912;43.270;27.942;2023-02-13T14:14:48;99752.91;;;10.20;36.33
32456;BME280;18912;43.270;27.942;2023-02-13T14:17:15;99759.75;;;9.99;36.78
32456;BME280;18912;43.270;27.942;2023-02-13T14:19:46;99751.94;;;9.80;36.66
32456;BME280;18912;43.270;27.942;2023-02-13T14:24:51;99745.72;;;8.94;37.49
32456;BME280;18912;43.270;27.942;2023-02-13T14:27:29;99752.59;;;9.14;37.71
32456;BME280;18912;43.270;27.942;2023-02-13T14:29:56;99749.38;;;8.68;38.29
32456;BME280;18912;43.270;27.942;2023-02-13T14:32:43;99743.06;;;8.59;38.38
32456;BME280;18912;43.270;27.942;2023-02-13T14:35:20;99750.28;;;8.76;37.99
32456;BME280;18912;43.270;27.942;2023-02-13T14:37:52;99743.84;;;8.95;37.78
32456;BME280;18912;43.270;27.942;2023-02-13T14:42:46;99740.34;;;9.28;38.48
32456;BME280;18912;43.270;27.942;2023-02-13T14:45:19;99730.78;;;9.33;38.86
32456;BME280;18912;43.270;27.942;2023-02-13T14:47:49;99736.34;;;9.06;39.37
32456;BME280;18912;43.270;27.942;2023-02-13T14:50:34;99726.22;;;9.08;39.67
32456;BME280;18912;43.270;27.942;2023-02-13T14:53:08;99727.22;;;8.82;40.26
32456;BME280;18912;43.270;27.942;2023-02-13T14:55:41;99722.00;;;8.80;40.64
32456;BME280;18912;43.270;27.942;2023-02-13T14:58:21;99734.16;;;8.84;40.05
32456;BME280;18912;43.270;27.942;2023-02-13T15:03:23;99720.81;;;8.57;40.41
32456;BME280;18912;43.270;27.942;2023-02-13T15:05:53;99727.03;;;9.01;39.97
32456;BME280;18912;43.270;27.942;2023-02-13T15:08:27;99721.56;;;8.67;40.46
32456;BME280;18912;43.270;27.942;2023-02-13T15:10:55;99712.31;;;8.17;41.73
32456;BME280;18912;43.270;27.942;2023-02-13T15:13:23;99729.81;;;8.30;42.02
32456;BME280;18912;43.270;27.942;2023-02-13T15:16:05;99718.50;;;8.44;41.84
32456;BME280;18912;43.270;27.942;2023-02-13T15:18:44;99726.75;;;8.43;41.55
32456;BME280;18912;43.270;27.942;2023-02-13T15:21:14;99731.66;;;8.12;42.34
32456;BME280;18912;43.270;27.942;2023-02-13T15:23:41;99728.34;;;7.74;43.30
32456;BME280;18912;43.270;27.942;2023-02-13T15:26:08;99733.22;;;7.88;42.89
32456;BME280;18912;43.270;27.942;2023-02-13T15:29:00;99726.59;;;8.00;42.46
32456;BME280;18912;43.270;27.942;2023-02-13T15:31:32;99732.41;;;8.05;42.25
32456;BME280;18912;43.270;27.942;2023-02-13T15:33:58;99733.81;;;7.82;42.51
32456;BME280;18912;43.270;27.942;2023-02-13T15:36:25;99727.63;;;7.99;42.27
32456;BME280;18912;43.270;27.942;2023-02-13T15:38:58;99733.78;;;7.91;42.61
32456;BME280;18912;43.270;27.942;2023-02-13T15:41:31;99700.34;;;7.67;42.41
32456;BME280;18912;43.270;27.942;2023-02-13T15:43:58;99741.06;;;7.81;42.65